createdAt,value
2018-09-22T00:01:01.581Z,8.73
2018-09-22T00:03:37.423Z,9.05
2018-09-22T00:06:13.340Z,9.10
2018-09-22T00:08:49.192Z,9.14
2018-09-22T00:11:25.033Z,9.21
2018-09-22T00:14:00.904Z,9.27
2018-09-22T00:16:36.799Z,9.54
2018-09-22T00:19:12.712Z,9.64
2018-09-22T00:21:48.660Z,9.78
2018-09-22T00:24:24.885Z,9.87
2018-09-22T00:27:00.654Z,9.32
2018-09-22T00:29:36.629Z,9.13
2018-09-22T00:32:12.477Z,8.73
2018-09-22T00:34:48.346Z,8.48
2018-09-22T00:37:24.269Z,8.42
2018-09-22T00:40:00.099Z,8.45
2018-09-22T00:42:36.071Z,8.71
2018-09-22T00:45:12.025Z,9.10
2018-09-22T00:47:48.194Z,9.22
2018-09-22T00:50:24.240Z,9.49
2018-09-22T00:53:00.045Z,9.56
2018-09-22T00:55:36.020Z,9.22
2018-09-22T00:58:11.906Z,8.85
2018-09-22T01:00:47.835Z,8.51
2018-09-22T01:03:23.640Z,8.73
2018-09-22T01:05:59.509Z,8.89
2018-09-22T01:08:35.306Z,8.74
2018-09-22T01:11:11.112Z,8.63
2018-09-22T01:13:46.958Z,8.51
2018-09-22T01:16:22.928Z,8.45
2018-09-22T01:18:58.718Z,8.52
2018-09-22T01:21:35.020Z,8.51
2018-09-22T01:24:16.620Z,8.49
2018-09-22T01:26:52.519Z,8.64
2018-09-22T01:29:28.425Z,8.44
2018-09-22T01:32:04.324Z,8.30
2018-09-22T01:34:40.082Z,8.60
2018-09-22T01:37:15.952Z,8.36
2018-09-22T01:39:51.734Z,8.40
2018-09-22T01:42:27.696Z,8.46
2018-09-22T01:45:03.815Z,8.50
2018-09-22T01:47:39.669Z,8.56
2018-09-22T01:50:15.486Z,8.74
2018-09-22T01:52:51.337Z,8.63
2018-09-22T01:55:27.281Z,8.68
2018-09-22T01:58:03.283Z,8.88
2018-09-22T02:00:39.363Z,8.86
2018-09-22T02:03:15.318Z,8.93
2018-09-22T02:05:51.268Z,9.04
2018-09-22T02:08:27.116Z,9.22
2018-09-22T02:11:02.991Z,9.35
2018-09-22T02:13:38.942Z,9.32
2018-09-22T02:16:14.862Z,8.99
2018-09-22T02:18:50.744Z,8.23
2018-09-22T02:21:26.662Z,7.85
2018-09-22T02:24:02.568Z,7.70
2018-09-22T02:26:38.404Z,7.88
2018-09-22T02:29:14.429Z,8.14
2018-09-22T02:31:50.277Z,8.03
2018-09-22T02:34:26.220Z,7.99
2018-09-22T02:37:02.296Z,8.00
2018-09-22T02:39:38.327Z,8.05
2018-09-22T02:42:14.243Z,7.88
2018-09-22T02:44:50.178Z,7.74
2018-09-22T02:47:26.156Z,7.63
2018-09-22T02:50:02.137Z,7.37
2018-09-22T02:52:38.470Z,7.16
2018-09-22T02:55:14.439Z,6.95
2018-09-22T02:57:50.395Z,6.71
2018-09-22T03:00:26.353Z,6.75
2018-09-22T03:03:02.288Z,6.72
2018-09-22T03:05:38.185Z,6.79
2018-09-22T03:08:14.134Z,7.07
2018-09-22T03:10:50.107Z,7.10
2018-09-22T03:13:25.920Z,7.14
2018-09-22T03:16:01.839Z,7.12
2018-09-22T03:18:37.504Z,6.85
2018-09-22T03:21:13.427Z,6.63
2018-09-22T03:23:49.406Z,6.88
2018-09-22T03:26:25.284Z,6.70
2018-09-22T03:29:01.191Z,6.69
2018-09-22T03:31:37.378Z,6.77
2018-09-22T03:34:13.390Z,7.19
2018-09-22T03:36:49.341Z,7.14
2018-09-22T03:39:25.258Z,7.20
2018-09-22T03:42:01.308Z,7.35
2018-09-22T03:44:37.240Z,7.53
2018-09-22T03:47:13.251Z,7.70
2018-09-22T03:49:49.236Z,7.90
2018-09-22T03:52:25.162Z,7.64
2018-09-22T03:55:03.610Z,7.13
2018-09-22T03:57:39.640Z,7.01
2018-09-22T04:00:15.487Z,7.09
2018-09-22T04:02:51.359Z,7.16
2018-09-22T04:05:27.151Z,6.75
2018-09-22T04:08:04.985Z,6.21
2018-09-22T04:10:41.394Z,6.10
2018-09-22T04:13:17.455Z,6.41
2018-09-22T04:15:53.381Z,6.79
2018-09-22T04:18:29.229Z,6.78
2018-09-22T04:21:05.149Z,6.88
2018-09-22T04:23:41.012Z,6.63
2018-09-22T04:26:16.787Z,6.52
2018-09-22T04:28:52.686Z,6.44
2018-09-22T04:31:28.670Z,6.69
2018-09-22T04:34:04.797Z,6.62
2018-09-22T04:36:40.807Z,6.65
2018-09-22T04:39:16.773Z,6.98
2018-09-22T04:41:52.725Z,7.10
2018-09-22T04:44:29.117Z,7.49
2018-09-22T04:47:05.989Z,7.60
2018-09-22T04:49:41.984Z,7.87
2018-09-22T04:52:17.949Z,7.79
2018-09-22T04:54:53.910Z,7.83
2018-09-22T04:57:29.735Z,7.98
2018-09-22T05:00:06.032Z,7.80
2018-09-22T05:02:41.890Z,7.68
2018-09-22T05:05:17.920Z,7.41
2018-09-22T05:07:53.866Z,7.50
2018-09-22T05:11:53.728Z,7.91
2018-09-22T05:14:29.635Z,8.10
2018-09-22T05:17:05.614Z,8.00
2018-09-22T05:19:41.701Z,8.20
2018-09-22T05:22:17.668Z,8.57
2018-09-22T05:24:53.687Z,8.94
2018-09-22T05:27:29.954Z,9.04
2018-09-22T05:30:06.357Z,9.35
2018-09-22T05:32:44.933Z,9.53
2018-09-22T05:35:20.737Z,9.86
2018-09-22T05:37:57.736Z,10.12
2018-09-22T05:40:33.570Z,10.38
2018-09-22T05:43:09.457Z,10.67
2018-09-22T05:45:45.449Z,11.00
2018-09-22T05:48:21.446Z,11.30
2018-09-22T05:50:57.450Z,11.41
2018-09-22T05:53:33.443Z,11.47
2018-09-22T05:56:09.489Z,11.54
2018-09-22T05:58:45.467Z,12.11
2018-09-22T06:01:21.270Z,12.30
2018-09-22T06:03:57.329Z,12.42
2018-09-22T06:06:33.384Z,12.63
2018-09-22T06:09:10.370Z,12.83
2018-09-22T06:11:46.294Z,12.77
2018-09-22T06:14:22.383Z,12.90
2018-09-22T06:16:58.336Z,13.29
2018-09-22T06:19:34.222Z,13.55
2018-09-22T06:22:10.208Z,13.81
2018-09-22T06:24:46.222Z,14.25
2018-09-22T06:27:22.178Z,14.08
2018-09-22T06:29:58.014Z,14.20
2018-09-22T06:32:33.905Z,14.52
2018-09-22T06:35:09.784Z,14.69
2018-09-22T06:37:45.743Z,14.96
2018-09-22T06:40:21.666Z,14.81
2018-09-22T06:42:57.563Z,14.87
2018-09-22T06:45:33.520Z,14.54
2018-09-22T06:48:09.786Z,14.81
2018-09-22T06:50:45.920Z,14.84
2018-09-22T06:53:22.700Z,15.06
2018-09-22T06:55:58.856Z,15.37
2018-09-22T06:58:34.901Z,15.20
2018-09-22T07:01:10.820Z,15.39
2018-09-22T07:03:47.175Z,15.89
2018-09-22T07:06:23.022Z,16.19
2018-09-22T07:08:59.234Z,16.75
2018-09-22T07:11:35.318Z,17.11
2018-09-22T07:14:11.324Z,17.15
2018-09-22T07:16:47.694Z,17.27
2018-09-22T07:19:23.662Z,17.67
2018-09-22T07:22:04.625Z,17.58
2018-09-22T07:24:40.605Z,17.79
2018-09-22T07:27:16.737Z,18.02
2018-09-22T07:29:52.981Z,18.39
2018-09-22T07:32:28.879Z,18.27
2018-09-22T07:35:04.838Z,18.47
2018-09-22T07:44:49.423Z,18.57
2018-09-22T07:47:25.262Z,18.76
2018-09-22T07:50:01.168Z,19.32
2018-09-22T07:52:37.157Z,19.44
2018-09-22T07:55:13.129Z,19.70
2018-09-22T07:57:49.237Z,20.00
2018-09-22T08:00:25.352Z,20.00
2018-09-22T08:03:01.375Z,20.15
2018-09-22T08:05:37.184Z,20.33
2018-09-22T08:08:12.977Z,20.34
2018-09-22T08:10:48.886Z,20.46
2018-09-22T08:14:49.027Z,20.46
2018-09-22T08:17:25.127Z,20.88
2018-09-22T08:20:01.041Z,20.89
2018-09-22T08:22:36.965Z,21.27
2018-09-22T08:25:13.234Z,21.13
2018-09-22T08:27:49.459Z,21.20
2018-09-22T08:30:25.254Z,21.15
2018-09-22T08:33:01.434Z,21.29
2018-09-22T08:35:37.769Z,21.38
2018-09-22T08:38:13.797Z,21.73
2018-09-22T08:40:49.632Z,22.03
2018-09-22T08:43:25.530Z,22.47
2018-09-22T08:46:01.472Z,22.21
2018-09-22T08:48:37.503Z,22.22
2018-09-22T08:51:13.499Z,22.68
2018-09-22T08:53:49.710Z,23.10
2018-09-22T08:56:25.640Z,23.33
2018-09-22T08:59:01.751Z,23.29
2018-09-22T09:01:37.566Z,23.35
2018-09-22T09:04:13.533Z,23.57
2018-09-22T09:06:49.352Z,23.77
2018-09-22T09:09:25.225Z,23.79
2018-09-22T09:12:01.016Z,23.70
2018-09-22T09:14:36.855Z,23.47
2018-09-22T09:17:13.089Z,23.71
2018-09-22T09:19:49.232Z,24.01
2018-09-22T09:22:25.096Z,24.22
2018-09-22T09:25:01.051Z,24.52
2018-09-22T09:27:37.105Z,24.99
2018-09-22T09:30:13.373Z,24.99
2018-09-22T09:32:49.187Z,25.32
2018-09-22T09:35:25.120Z,25.59
2018-09-22T09:38:01.210Z,25.65
2018-09-22T09:40:37.266Z,25.45
2018-09-22T09:43:13.080Z,25.51
2018-09-22T09:45:49.036Z,25.74
2018-09-22T09:48:24.863Z,26.13
2018-09-22T09:51:00.777Z,26.22
2018-09-22T09:53:36.795Z,26.54
2018-09-22T09:56:12.789Z,26.58
2018-09-22T09:58:48.689Z,26.88
2018-09-22T10:01:24.799Z,26.58
2018-09-22T10:04:00.615Z,26.73
2018-09-22T10:06:36.601Z,26.73
2018-09-22T10:09:12.581Z,26.75
2018-09-22T10:11:48.750Z,27.00
2018-09-22T10:14:24.901Z,27.07
2018-09-22T10:17:00.806Z,27.08
2018-09-22T10:19:35.515Z,27.28
2018-09-22T10:22:06.924Z,27.40
2018-09-22T10:24:37.798Z,27.20
2018-09-22T10:27:09.128Z,26.94
2018-09-22T10:29:39.953Z,27.20
2018-09-22T10:32:10.850Z,27.37
2018-09-22T10:34:41.704Z,27.78
2018-09-22T10:37:12.946Z,27.86
2018-09-22T10:39:43.811Z,27.97
2018-09-22T10:42:15.091Z,27.82
2018-09-22T10:44:46.193Z,28.04
2018-09-22T10:47:17.130Z,28.17
2018-09-22T10:49:48.009Z,28.47
2018-09-22T10:52:18.989Z,28.27
2018-09-22T10:54:49.879Z,28.64
2018-09-22T10:57:20.761Z,28.90
2018-09-22T10:59:51.591Z,28.87
2018-09-22T11:02:22.615Z,28.37
2018-09-22T11:04:53.459Z,28.69
2018-09-22T11:07:24.433Z,29.09
2018-09-22T11:09:55.293Z,28.64
2018-09-22T11:12:26.217Z,28.62
2018-09-22T11:14:57.055Z,28.83
2018-09-22T11:17:27.944Z,29.02
2018-09-22T11:19:58.783Z,29.33
2018-09-22T11:22:29.719Z,29.75
2018-09-22T11:26:24.853Z,28.91
2018-09-22T11:28:56.400Z,29.21
2018-09-22T11:31:27.390Z,29.48
2018-09-22T11:33:58.437Z,29.80
2018-09-22T11:36:29.291Z,29.35
2018-09-22T11:39:00.282Z,29.17
2018-09-22T11:41:31.162Z,29.21
2018-09-22T11:44:02.155Z,29.64
2018-09-22T11:46:33.063Z,29.80
2018-09-22T11:49:03.981Z,29.99
2018-09-22T11:51:34.864Z,29.99
2018-09-22T11:54:05.802Z,28.93
2018-09-22T11:56:36.777Z,29.03
2018-09-22T11:59:20.475Z,29.40
2018-09-22T12:01:51.406Z,29.55
2018-09-22T12:04:22.660Z,29.99
2018-09-22T12:06:53.530Z,29.74
2018-09-22T12:09:24.520Z,29.72
2018-09-22T12:11:55.404Z,29.78
2018-09-22T12:14:26.358Z,29.49
2018-09-22T12:16:57.206Z,29.49
2018-09-22T12:19:28.130Z,29.30
2018-09-22T12:21:58.990Z,29.42
2018-09-22T12:24:29.993Z,29.21
2018-09-22T12:27:00.845Z,28.93
2018-09-22T12:29:31.803Z,29.12
2018-09-22T12:32:03.072Z,29.42
2018-09-22T12:34:35.167Z,28.92
2018-09-22T12:37:06.112Z,28.68
2018-09-22T12:39:37.050Z,28.72
2018-09-22T12:42:07.993Z,29.19
2018-09-22T12:44:39.756Z,29.56
2018-09-22T12:47:10.582Z,29.82
2018-09-22T12:49:41.535Z,29.89
2018-09-22T12:52:12.498Z,28.98
2018-09-22T12:54:43.412Z,29.41
2018-09-22T12:57:14.281Z,29.45
2018-09-22T12:59:45.228Z,29.51
2018-09-22T13:02:16.080Z,29.29
2018-09-22T13:04:47.088Z,29.35
2018-09-22T13:07:18.031Z,29.84
2018-09-22T13:09:48.930Z,29.56
2018-09-22T13:12:19.819Z,29.58
2018-09-22T13:14:50.754Z,29.23
2018-09-22T13:17:21.624Z,29.53
2018-09-22T13:19:52.543Z,29.80
2018-09-22T13:22:23.846Z,30.02
2018-09-22T13:24:54.905Z,29.86
2018-09-22T13:27:25.757Z,29.44
2018-09-22T13:29:56.717Z,30.02
2018-09-22T13:32:27.582Z,30.27
2018-09-22T13:34:58.501Z,30.95
2018-09-22T13:37:29.352Z,32.14
2018-09-22T13:40:00.270Z,31.88
2018-09-22T13:42:31.135Z,32.06
2018-09-22T13:45:02.093Z,31.49
2018-09-22T13:47:32.953Z,31.20
2018-09-22T13:50:04.290Z,31.68
2018-09-22T13:52:35.188Z,32.22
2018-09-22T13:58:39.753Z,32.93
2018-09-22T14:01:11.111Z,32.10
2018-09-22T14:03:42.016Z,31.68
2018-09-22T14:06:13.703Z,32.44
2018-09-22T14:08:46.242Z,32.53
2018-09-22T14:11:17.123Z,32.79
2018-09-22T14:13:47.979Z,33.09
2018-09-22T14:16:18.923Z,32.69
2018-09-22T14:18:49.789Z,32.95
2018-09-22T14:21:21.634Z,33.19
2018-09-22T14:23:53.014Z,33.33
2018-09-22T14:26:23.922Z,33.02
2018-09-22T14:28:54.775Z,33.12
2018-09-22T14:31:25.754Z,33.10
2018-09-22T14:33:56.772Z,31.60
2018-09-22T14:36:31.304Z,31.05
2018-09-22T14:39:02.231Z,30.66
2018-09-22T14:41:33.164Z,29.60
2018-09-22T14:44:04.432Z,29.04
2018-09-22T14:46:35.550Z,28.53
2018-09-22T14:49:06.403Z,28.09
2018-09-22T14:51:37.301Z,27.81
2018-09-22T14:54:08.159Z,27.57
2018-09-22T14:56:39.066Z,27.42
2018-09-22T14:59:09.965Z,27.25
2018-09-22T15:01:41.424Z,27.09
2018-09-22T15:04:16.930Z,26.99
2018-09-22T15:06:47.992Z,26.81
2018-09-22T15:09:19.285Z,26.51
2018-09-22T15:11:50.374Z,26.32
2018-09-22T15:14:28.897Z,26.52
2018-09-22T15:17:01.763Z,26.40
2018-09-22T15:19:32.809Z,26.30
2018-09-22T15:22:04.440Z,26.22
2018-09-22T15:24:35.414Z,26.19
2018-09-22T15:27:06.408Z,26.09
2018-09-22T15:29:37.274Z,26.09
2018-09-22T15:32:15.066Z,25.95
2018-09-22T15:34:46.996Z,25.82
2018-09-22T15:37:18.032Z,25.65
2018-09-22T15:39:48.879Z,25.25
2018-09-22T15:42:20.565Z,25.20
2018-09-22T15:44:52.717Z,25.18
2018-09-22T15:47:23.606Z,24.90
2018-09-22T15:49:58.176Z,24.69
2018-09-22T15:52:29.118Z,24.64
2018-09-22T15:54:59.959Z,24.44
2018-09-22T15:57:30.884Z,24.46
2018-09-22T16:00:01.735Z,24.32
2018-09-22T16:02:32.630Z,24.11
2018-09-22T16:05:03.510Z,24.14
2018-09-22T16:07:35.819Z,24.09
2018-09-22T16:10:06.771Z,23.92
2018-09-22T16:12:37.699Z,23.66
2018-09-22T16:15:08.606Z,23.35
2018-09-22T16:17:39.925Z,23.15
2018-09-22T16:20:10.779Z,23.02
2018-09-22T16:22:41.738Z,22.76
2018-09-22T16:25:12.616Z,22.52
2018-09-22T16:27:43.535Z,22.15
2018-09-22T16:30:14.401Z,21.97
2018-09-22T16:32:45.325Z,21.79
2018-09-22T16:35:16.365Z,21.58
2018-09-22T16:37:47.845Z,21.22
2018-09-22T16:40:18.782Z,21.05
2018-09-22T16:42:50.487Z,20.87
2018-09-22T16:45:21.347Z,20.73
2018-09-22T16:47:52.247Z,20.80
2018-09-22T16:50:25.773Z,20.68
2018-09-22T16:52:57.168Z,20.75
2018-09-22T16:55:28.040Z,20.63
2018-09-22T16:57:58.985Z,20.64
2018-09-22T17:00:29.835Z,20.65
2018-09-22T17:03:00.748Z,21.04
2018-09-22T17:05:31.775Z,21.03
2018-09-22T17:08:02.769Z,20.80
2018-09-22T17:10:33.625Z,20.96
2018-09-22T17:13:04.530Z,20.72
2018-09-22T17:15:35.553Z,20.49
2018-09-22T17:18:06.480Z,20.24
2018-09-22T17:20:37.325Z,20.05
2018-09-22T17:23:08.321Z,19.76
2018-09-22T17:25:39.169Z,19.76
2018-09-22T17:28:10.298Z,19.80
2018-09-22T17:30:41.163Z,19.70
2018-09-22T17:33:12.051Z,19.61
2018-09-22T17:35:42.915Z,19.38
2018-09-22T17:38:13.914Z,19.45
2018-09-22T17:40:44.854Z,19.18
2018-09-22T17:43:15.802Z,18.92
2018-09-22T17:45:47.236Z,19.06
2018-09-22T17:48:18.281Z,18.87
2018-09-22T17:50:49.303Z,18.83
2018-09-22T17:53:20.332Z,18.53
2018-09-22T17:55:51.388Z,18.51
2018-09-22T17:58:22.324Z,18.61
2018-09-22T18:00:53.361Z,18.21
2018-09-22T18:03:24.380Z,17.75
2018-09-22T18:05:55.237Z,17.62
2018-09-22T18:08:27.264Z,17.30
2018-09-22T18:10:58.214Z,17.15
2018-09-22T18:13:29.136Z,17.09
2018-09-22T18:16:00.002Z,17.20
2018-09-22T18:18:30.924Z,17.39
2018-09-22T18:21:01.783Z,17.56
2018-09-22T18:23:32.744Z,17.57
2018-09-22T18:26:03.827Z,17.63
2018-09-22T18:28:39.427Z,17.52
2018-09-22T18:31:10.369Z,17.56
2018-09-22T18:33:41.275Z,17.40
2018-09-22T18:36:12.191Z,17.35
2018-09-22T18:38:43.233Z,17.33
2018-09-22T18:41:14.081Z,17.07
2018-09-22T18:43:45.008Z,16.80
2018-09-22T18:46:15.934Z,16.78
2018-09-22T18:48:46.850Z,16.64
2018-09-22T18:51:17.948Z,16.63
2018-09-22T18:53:49.637Z,16.22
2018-09-22T18:56:22.306Z,16.07
2018-09-22T18:58:54.040Z,16.06
2018-09-22T19:01:25.008Z,16.02
2018-09-22T19:03:55.916Z,16.11
2018-09-22T19:06:26.785Z,16.16
2018-09-22T19:08:57.754Z,16.16
2018-09-22T19:11:28.623Z,16.11
2018-09-22T19:14:05.790Z,16.21
2018-09-22T19:16:48.609Z,16.32
2018-09-22T19:19:23.580Z,16.18
2018-09-22T19:22:00.161Z,15.82
2018-09-22T19:24:34.420Z,15.82
2018-09-22T19:27:08.883Z,15.78
2018-09-22T19:29:43.739Z,16.03
2018-09-22T19:32:17.944Z,16.12
2018-09-22T19:35:06.857Z,15.87
2018-09-22T19:37:48.433Z,15.78
2018-09-22T19:40:24.337Z,15.61
2018-09-22T19:42:59.804Z,15.53
2018-09-22T19:45:35.094Z,15.30
2018-09-22T19:48:12.646Z,15.19
2018-09-22T19:50:48.920Z,15.11
2018-09-22T19:53:20.283Z,15.00
2018-09-22T19:55:51.338Z,15.17
2018-09-22T19:58:22.307Z,15.19
2018-09-22T20:00:58.519Z,14.56
2018-09-22T20:03:34.327Z,13.89
2018-09-22T20:06:10.277Z,13.70
2018-09-22T20:08:50.157Z,13.59
2018-09-22T20:11:27.928Z,13.67
2018-09-22T20:14:03.729Z,13.86
2018-09-22T20:16:39.699Z,13.92
2018-09-22T20:19:15.548Z,14.14
2018-09-22T20:21:51.396Z,14.19
2018-09-22T20:24:27.244Z,13.86
2018-09-22T20:27:03.195Z,13.69
2018-09-22T20:29:39.021Z,13.44
2018-09-22T20:32:14.861Z,13.47
2018-09-22T20:34:50.704Z,13.60
2018-09-22T20:37:26.559Z,13.66
2018-09-22T20:40:02.571Z,13.79
2018-09-22T20:42:39.103Z,13.98
2018-09-22T20:45:15.106Z,14.05
2018-09-22T20:47:51.251Z,14.12
2018-09-22T20:50:29.163Z,14.08
2018-09-22T20:53:09.513Z,13.85
2018-09-22T20:55:45.697Z,13.44
2018-09-22T20:58:21.675Z,13.18
2018-09-22T21:00:57.638Z,13.33
2018-09-22T21:03:33.952Z,12.94
2018-09-22T21:06:10.050Z,12.83
2018-09-22T21:08:45.822Z,12.87
2018-09-22T21:11:21.854Z,12.73
2018-09-22T21:13:57.784Z,12.68
2018-09-22T21:16:33.795Z,12.84
2018-09-22T21:19:09.925Z,13.06
2018-09-22T21:21:45.913Z,13.27
2018-09-22T21:24:21.852Z,13.41
2018-09-22T21:26:57.924Z,12.71
2018-09-22T21:29:36.473Z,12.35
2018-09-22T21:32:12.318Z,12.27
2018-09-22T21:34:48.308Z,12.33
2018-09-22T21:37:24.133Z,12.51
2018-09-22T21:40:00.126Z,12.60
2018-09-22T21:42:36.162Z,12.56
2018-09-22T21:45:12.193Z,12.29
2018-09-22T21:47:48.030Z,12.00
2018-09-22T21:50:24.046Z,12.20
2018-09-22T21:53:00.004Z,12.17
2018-09-22T21:55:35.864Z,12.40
2018-09-22T21:58:11.740Z,12.55
2018-09-22T22:00:51.624Z,12.71
2018-09-22T22:03:27.619Z,12.82
2018-09-22T22:06:03.884Z,12.94
2018-09-22T22:08:40.376Z,12.97
2018-09-22T22:11:16.470Z,12.38
2018-09-22T22:13:52.478Z,11.97
2018-09-22T22:16:28.462Z,11.92
2018-09-22T22:19:05.033Z,11.87
2018-09-22T22:21:41.007Z,12.20
2018-09-22T22:24:17.558Z,12.38
2018-09-22T22:26:55.231Z,12.53
2018-09-22T22:29:31.113Z,12.61
2018-09-22T22:32:07.761Z,12.76
2018-09-22T22:34:43.488Z,12.79
2018-09-22T22:37:19.970Z,12.81
2018-09-22T22:39:55.967Z,12.29
2018-09-22T22:42:31.837Z,12.11
2018-09-22T22:45:07.749Z,12.23
2018-09-22T22:47:43.906Z,12.16
2018-09-22T22:50:24.250Z,11.95
2018-09-22T22:53:00.117Z,11.99
2018-09-22T22:55:36.161Z,12.16
2018-09-22T22:58:14.066Z,11.85
2018-09-22T23:00:50.126Z,11.64
2018-09-22T23:03:26.117Z,11.77
2018-09-22T23:06:06.708Z,11.65
2018-09-22T23:08:42.919Z,11.99
2018-09-22T23:11:18.842Z,11.77
2018-09-22T23:13:54.889Z,11.46
2018-09-22T23:16:30.823Z,10.94
2018-09-22T23:19:06.791Z,10.61
2018-09-22T23:21:43.792Z,10.55
2018-09-22T23:24:20.100Z,10.94
2018-09-22T23:26:56.028Z,10.99
2018-09-22T23:29:32.007Z,11.40
2018-09-22T23:32:08.861Z,11.52
2018-09-22T23:34:45.024Z,11.71
2018-09-22T23:37:20.781Z,11.39
2018-09-22T23:39:57.095Z,11.36
2018-09-22T23:42:32.980Z,11.19
2018-09-22T23:45:08.941Z,11.11
2018-09-22T23:47:44.770Z,10.93
2018-09-22T23:50:20.891Z,11.18
2018-09-22T23:52:56.847Z,11.15
2018-09-22T23:55:32.738Z,10.79
2018-09-22T23:58:08.685Z,10.47
